Banning, California
Current Conditions -  °F | °C
As of 11:53 PM on Thursday 27 Nov 2014 (Local Time) from KPSP Reporting Station
Clear Clear  
Wind Chill: 60°   Ceiling: Unl
Heat Index: 60°   Visibility: 10mi
Dew Point: 23°   Wind: 8mph
Humidity: 24%   Direction: 340°NNW
Pressure: 30.06"   Gusts: NA
Location:  33.93°N, 116.87°W
Report Text: KPSP 280753Z AUTO 34007KT 10SM CLR 16/M05 A3006 RMK AO2 SLP176 T01561050 402890078 TSNO
Loading
Personal Weather Stations






























Interactive Weather Map New forecast layout! Learn more

10-Day Weather Forecast

Advertisements
Track Severe Weather on mobile